createdAt,value
2022-08-02T00:00:11.620Z,100.00
2022-08-02T00:02:37.942Z,100.00
2022-08-02T00:05:04.764Z,100.00
2022-08-02T00:07:31.096Z,100.00
2022-08-02T00:09:57.433Z,100.00
2022-08-02T00:12:23.780Z,100.00
2022-08-02T00:14:50.120Z,100.00
2022-08-02T00:17:17.829Z,100.00
2022-08-02T00:19:44.481Z,100.00
2022-08-02T00:22:11.161Z,100.00
2022-08-02T00:24:37.828Z,100.00
2022-08-02T00:27:05.067Z,100.00
2022-08-02T00:29:36.716Z,100.00
2022-08-02T00:32:18.296Z,100.00
2022-08-02T00:34:44.632Z,100.00
2022-08-02T00:37:10.974Z,100.00
2022-08-02T00:39:37.297Z,100.00
2022-08-02T00:42:04.409Z,100.00
2022-08-02T00:44:30.740Z,100.00
2022-08-02T00:46:57.100Z,100.00
2022-08-02T00:49:24.881Z,100.00
2022-08-02T00:51:51.310Z,100.00
2022-08-02T00:54:19.296Z,100.00
2022-08-02T00:56:50.068Z,100.00
2022-08-02T00:59:17.821Z,100.00
2022-08-02T01:01:56.028Z,100.00
2022-08-02T01:04:30.635Z,100.00
2022-08-02T01:06:58.582Z,100.00
2022-08-02T01:09:24.931Z,100.00
2022-08-02T01:11:51.270Z,100.00
2022-08-02T01:14:17.895Z,100.00
2022-08-02T01:16:46.410Z,100.00
2022-08-02T01:19:29.667Z,100.00
2022-08-02T01:22:05.955Z,100.00
2022-08-02T01:24:54.928Z,100.00
2022-08-02T01:27:29.543Z,100.00
2022-08-02T01:29:59.354Z,100.00
2022-08-02T01:32:27.838Z,100.00
2022-08-02T01:34:56.268Z,100.00
2022-08-02T01:37:24.340Z,100.00
2022-08-02T01:39:54.370Z,100.00
2022-08-02T01:42:21.451Z,100.00
2022-08-02T01:44:49.580Z,100.00
2022-08-02T01:47:18.559Z,100.00
2022-08-02T01:49:46.332Z,100.00
2022-08-02T01:52:13.980Z,100.00
2022-08-02T01:54:42.116Z,100.00
2022-08-02T01:57:09.615Z,100.00
2022-08-02T01:59:36.546Z,100.00
2022-08-02T02:02:07.324Z,100.00
2022-08-02T02:04:36.592Z,100.00
2022-08-02T02:07:03.648Z,100.00
2022-08-02T02:09:31.235Z,100.00
2022-08-02T02:12:05.310Z,100.00
2022-08-02T02:14:40.695Z,100.00
2022-08-02T02:17:08.015Z,100.00
2022-08-02T02:19:37.758Z,100.00
2022-08-02T02:22:04.164Z,100.00
2022-08-02T02:24:30.995Z,100.00
2022-08-02T02:26:59.505Z,100.00
2022-08-02T02:29:28.088Z,100.00
2022-08-02T02:31:55.140Z,100.00
2022-08-02T02:34:25.315Z,100.00
2022-08-02T02:36:53.618Z,100.00
2022-08-02T02:39:21.293Z,100.00
2022-08-02T02:41:47.739Z,100.00
2022-08-02T02:44:16.250Z,100.00
2022-08-02T02:46:43.891Z,100.00
2022-08-02T02:49:11.135Z,100.00
2022-08-02T02:51:39.310Z,100.00
2022-08-02T02:54:30.158Z,100.00
2022-08-02T02:56:55.422Z,100.00
2022-08-02T02:59:21.818Z,100.00
2022-08-02T03:01:56.809Z,100.00
2022-08-02T03:04:24.981Z,100.00
2022-08-02T03:06:51.432Z,100.00
2022-08-02T03:09:19.114Z,100.00
2022-08-02T03:11:45.881Z,100.00
2022-08-02T03:14:12.883Z,100.00
2022-08-02T03:16:42.556Z,100.00
2022-08-02T03:19:08.887Z,100.00
2022-08-02T03:21:35.202Z,100.00
2022-08-02T03:24:01.528Z,100.00
2022-08-02T03:26:29.244Z,100.00
2022-08-02T03:28:55.585Z,100.00
2022-08-02T03:31:21.979Z,100.00
2022-08-02T03:33:48.903Z,100.00
2022-08-02T03:36:16.482Z,100.00
2022-08-02T03:38:43.748Z,100.00
2022-08-02T03:41:10.975Z,100.00
2022-08-02T03:43:39.263Z,100.00
2022-08-02T03:46:07.562Z,100.00
2022-08-02T03:48:35.337Z,100.00
2022-08-02T03:51:01.860Z,100.00
2022-08-02T03:53:28.453Z,100.00
2022-08-02T03:55:56.045Z,100.00
2022-08-02T03:58:23.618Z,100.00
2022-08-02T04:00:52.575Z,100.00
2022-08-02T04:03:20.173Z,100.00
2022-08-02T04:06:03.557Z,100.00
2022-08-02T04:08:35.165Z,100.00
2022-08-02T04:11:02.992Z,100.00
2022-08-02T04:13:35.978Z,100.00
2022-08-02T04:16:08.956Z,100.00
2022-08-02T04:18:39.147Z,100.00
2022-08-02T04:21:06.418Z,100.00
2022-08-02T04:23:34.535Z,100.00
2022-08-02T04:26:03.565Z,100.00
2022-08-02T04:28:35.700Z,100.00
2022-08-02T04:31:02.393Z,100.00
2022-08-02T04:33:30.975Z,100.00
2022-08-02T04:35:59.709Z,100.00
2022-08-02T04:38:26.407Z,100.00
2022-08-02T04:40:54.187Z,100.00
2022-08-02T04:43:20.987Z,100.00
2022-08-02T04:45:48.241Z,100.00
2022-08-02T04:48:14.564Z,100.00
2022-08-02T04:50:42.244Z,100.00
2022-08-02T04:53:08.579Z,100.00
2022-08-02T04:55:34.967Z,100.00
2022-08-02T04:58:04.114Z,100.00
2022-08-02T05:00:36.185Z,100.00
2022-08-02T05:03:02.534Z,100.00
2022-08-02T05:05:28.880Z,100.00
2022-08-02T05:07:56.953Z,100.00
2022-08-02T05:10:23.427Z,100.00
2022-08-02T05:12:49.790Z,100.00
2022-08-02T05:15:16.125Z,100.00
2022-08-02T05:17:47.431Z,100.00
2022-08-02T05:20:15.423Z,100.00
2022-08-02T05:22:41.882Z,100.00
2022-08-02T05:25:10.312Z,100.00
2022-08-02T05:27:36.627Z,100.00
2022-08-02T05:30:03.628Z,100.00
2022-08-02T05:32:29.947Z,100.00
2022-08-02T05:34:56.287Z,100.00
2022-08-02T05:37:22.633Z,100.00
2022-08-02T05:39:55.928Z,100.00
2022-08-02T05:42:24.135Z,100.00
2022-08-02T05:44:50.570Z,100.00
2022-08-02T05:47:17.087Z,100.00
2022-08-02T05:49:43.415Z,100.00
2022-08-02T05:52:14.544Z,100.00
2022-08-02T05:54:47.034Z,100.00
2022-08-02T05:57:16.940Z,100.00
2022-08-02T05:59:50.258Z,100.00
2022-08-02T06:02:27.379Z,100.00
2022-08-02T06:04:59.402Z,100.00
2022-08-02T06:07:25.759Z,100.00
2022-08-02T06:09:52.498Z,100.00
2022-08-02T06:12:19.563Z,100.00
2022-08-02T06:14:51.399Z,100.00
2022-08-02T06:17:20.958Z,100.00
2022-08-02T06:19:52.390Z,100.00
2022-08-02T06:22:34.575Z,100.00
2022-08-02T06:25:03.479Z,100.00
2022-08-02T06:27:30.129Z,100.00
2022-08-02T06:29:58.038Z,100.00
2022-08-02T06:32:26.519Z,100.00
2022-08-02T06:34:52.839Z,100.00
2022-08-02T06:37:24.270Z,100.00
2022-08-02T06:39:54.530Z,100.00
2022-08-02T06:42:26.905Z,100.00
2022-08-02T06:44:57.235Z,100.00
2022-08-02T06:47:25.900Z,100.00
2022-08-02T06:49:54.316Z,100.00
2022-08-02T06:52:27.132Z,100.00
2022-08-02T06:54:55.076Z,100.00
2022-08-02T06:57:21.386Z,100.00
2022-08-02T06:59:47.704Z,100.00
2022-08-02T07:02:14.325Z,100.00
2022-08-02T07:04:42.196Z,100.00
2022-08-02T07:07:08.547Z,100.00
2022-08-02T07:09:34.919Z,100.00
2022-08-02T07:12:01.241Z,100.00
2022-08-02T07:14:27.599Z,100.00
2022-08-02T07:16:53.931Z,100.00
2022-08-02T07:19:20.268Z,100.00
2022-08-02T07:21:56.722Z,100.00
2022-08-02T07:24:26.740Z,100.00
2022-08-02T07:27:10.501Z,100.00
2022-08-02T07:29:46.548Z,100.00
2022-08-02T07:32:13.968Z,100.00
2022-08-02T07:34:40.639Z,100.00
2022-08-02T07:37:23.503Z,100.00
2022-08-02T07:39:56.692Z,100.00
2022-08-02T07:42:23.462Z,100.00
2022-08-02T07:44:49.962Z,100.00
2022-08-02T07:47:16.332Z,100.00
2022-08-02T07:49:42.664Z,100.00
2022-08-02T07:52:10.720Z,100.00
2022-08-02T07:54:37.195Z,100.00
2022-08-02T07:57:03.723Z,100.00
2022-08-02T07:59:30.148Z,100.00
2022-08-02T08:01:56.588Z,100.00
2022-08-02T08:04:23.063Z,100.00
2022-08-02T08:06:49.396Z,100.00
2022-08-02T08:09:17.179Z,100.00
2022-08-02T08:11:43.536Z,100.00
2022-08-02T08:14:14.670Z,100.00
2022-08-02T08:16:42.988Z,100.00
2022-08-02T08:19:09.487Z,100.00
2022-08-02T08:21:35.806Z,100.00
2022-08-02T08:24:02.158Z,100.00
2022-08-02T08:26:29.859Z,100.00
2022-08-02T08:28:56.208Z,100.00
2022-08-02T08:31:22.540Z,100.00
2022-08-02T08:33:48.898Z,100.00
2022-08-02T08:36:15.246Z,100.00
2022-08-02T08:38:41.569Z,100.00
2022-08-02T08:41:08.419Z,100.00
2022-08-02T08:43:38.248Z,100.00
2022-08-02T08:46:04.887Z,100.00
2022-08-02T08:48:32.938Z,100.00
2022-08-02T08:51:01.958Z,100.00
2022-08-02T08:53:36.876Z,100.00
2022-08-02T08:56:04.211Z,100.00
2022-08-02T08:58:30.661Z,100.00
2022-08-02T09:00:58.784Z,100.00
2022-08-02T09:03:25.253Z,100.00
2022-08-02T09:05:51.622Z,100.00
2022-08-02T09:08:17.948Z,100.00
2022-08-02T09:10:44.901Z,100.00
2022-08-02T09:13:38.390Z,100.00
2022-08-02T09:16:13.028Z,100.00
2022-08-02T09:18:41.457Z,100.00
2022-08-02T09:21:08.459Z,100.00
2022-08-02T09:23:36.124Z,100.00
2022-08-02T09:26:07.413Z,100.00
2022-08-02T09:28:34.935Z,100.00
2022-08-02T09:31:09.219Z,100.00
2022-08-02T09:33:36.215Z,100.00
2022-08-02T09:36:06.454Z,100.00
2022-08-02T09:38:35.153Z,100.00
2022-08-02T09:41:01.735Z,100.00
2022-08-02T09:43:37.895Z,100.00
2022-08-02T09:46:27.084Z,100.00
2022-08-02T09:48:54.659Z,100.00
2022-08-02T09:51:22.368Z,100.00
2022-08-02T09:53:49.948Z,100.00
2022-08-02T09:56:30.245Z,100.00
2022-08-02T09:59:06.197Z,100.00
2022-08-02T10:01:37.357Z,100.00
2022-08-02T10:04:04.956Z,100.00
2022-08-02T10:06:31.628Z,100.00
2022-08-02T10:08:58.481Z,100.00
2022-08-02T10:11:25.954Z,100.00
2022-08-02T10:13:53.020Z,100.00
2022-08-02T10:16:20.527Z,100.00
2022-08-02T10:18:48.734Z,100.00
2022-08-02T10:21:19.423Z,100.00
2022-08-02T10:23:46.206Z,100.00
2022-08-02T10:26:14.541Z,100.00
2022-08-02T10:28:42.309Z,100.00
2022-08-02T10:31:10.136Z,100.00
2022-08-02T10:33:38.098Z,100.00
2022-08-02T10:36:07.812Z,100.00
2022-08-02T10:38:35.351Z,100.00
2022-08-02T10:41:01.726Z,100.00
2022-08-02T10:43:41.204Z,100.00
2022-08-02T10:46:20.449Z,100.00
2022-08-02T10:49:01.431Z,100.00
2022-08-02T10:51:52.696Z,100.00
2022-08-02T10:54:19.891Z,100.00
2022-08-02T10:56:46.853Z,100.00
2022-08-02T10:59:27.200Z,100.00
2022-08-02T11:01:53.757Z,100.00
2022-08-02T11:04:28.466Z,100.00
2022-08-02T11:07:09.410Z,100.00
2022-08-02T11:09:35.750Z,100.00
2022-08-02T11:12:03.592Z,100.00
2022-08-02T11:14:30.437Z,100.00
2022-08-02T11:17:07.462Z,100.00
2022-08-02T11:19:33.975Z,100.00
2022-08-02T11:22:00.764Z,100.00
2022-08-02T11:24:29.508Z,100.00
2022-08-02T11:26:56.216Z,100.00
2022-08-02T11:29:31.222Z,100.00
2022-08-02T11:31:57.902Z,100.00
2022-08-02T11:34:37.050Z,100.00
2022-08-02T11:37:04.619Z,100.00
2022-08-02T11:39:32.607Z,100.00
2022-08-02T11:42:00.075Z,100.00
2022-08-02T11:44:27.306Z,100.00
2022-08-02T11:46:54.504Z,100.00
2022-08-02T11:49:20.948Z,100.00
2022-08-02T11:51:54.452Z,100.00
2022-08-02T11:54:25.180Z,100.00
2022-08-02T11:56:52.926Z,100.00
2022-08-02T11:59:19.313Z,100.00
2022-08-02T12:01:46.547Z,100.00
2022-08-02T12:04:16.012Z,100.00
2022-08-02T12:06:42.522Z,100.00
2022-08-02T12:09:17.940Z,100.00
2022-08-02T12:11:47.891Z,100.00
2022-08-02T12:14:15.566Z,100.00
2022-08-02T12:16:41.950Z,100.00
2022-08-02T12:19:08.368Z,100.00
2022-08-02T12:21:36.364Z,100.00
2022-08-02T12:24:02.900Z,100.00
2022-08-02T12:26:29.375Z,100.00
2022-08-02T12:28:56.464Z,100.00
2022-08-02T12:31:38.805Z,100.00
2022-08-02T12:34:32.086Z,100.00
2022-08-02T12:37:03.290Z,100.00
2022-08-02T12:39:37.208Z,100.00
2022-08-02T12:42:04.138Z,99.93
2022-08-02T12:44:30.528Z,97.84
2022-08-02T12:47:03.941Z,98.92
2022-08-02T12:49:30.917Z,100.00
2022-08-02T12:52:02.232Z,95.64
2022-08-02T12:54:39.118Z,88.46
2022-08-02T12:57:10.844Z,88.21
2022-08-02T12:59:39.212Z,86.42
2022-08-02T13:02:09.603Z,82.61
2022-08-02T13:04:36.314Z,84.67
2022-08-02T13:07:03.652Z,86.07
2022-08-02T13:09:35.043Z,88.17
2022-08-02T13:12:01.377Z,85.00
2022-08-02T13:14:27.747Z,84.77
2022-08-02T13:16:54.109Z,82.30
2022-08-02T13:19:21.813Z,86.84
2022-08-02T13:22:01.325Z,88.02
2022-08-02T13:24:40.738Z,90.94
2022-08-02T13:27:15.816Z,90.74
2022-08-02T13:29:42.206Z,90.40
2022-08-02T13:32:08.551Z,89.31
2022-08-02T13:34:36.496Z,89.67
2022-08-02T13:37:03.297Z,90.35
2022-08-02T13:39:29.749Z,90.01
2022-08-02T13:41:56.093Z,91.91
2022-08-02T13:44:22.503Z,92.02
2022-08-02T13:46:48.969Z,88.11
2022-08-02T13:49:19.367Z,91.49
2022-08-02T13:51:48.358Z,88.22
2022-08-02T13:54:14.817Z,87.78
2022-08-02T13:56:41.296Z,84.62
2022-08-02T13:59:56.996Z,84.56
2022-08-02T14:01:54.168Z,83.47
2022-08-02T14:04:20.892Z,81.18
2022-08-02T14:06:48.656Z,81.60
2022-08-02T14:09:16.810Z,79.46
2022-08-02T14:11:43.733Z,79.82
2022-08-02T14:14:15.818Z,79.89
2022-08-02T14:16:44.282Z,80.34
2022-08-02T14:19:15.548Z,79.40
2022-08-02T14:21:46.717Z,79.05
2022-08-02T14:24:15.457Z,80.30
2022-08-02T14:26:41.800Z,80.68
2022-08-02T14:29:08.281Z,81.02
2022-08-02T14:31:34.663Z,81.21
2022-08-02T14:34:01.014Z,81.57
2022-08-02T14:36:28.167Z,80.05
2022-08-02T14:38:54.691Z,81.47
2022-08-02T14:41:22.413Z,82.43
2022-08-02T14:43:48.744Z,81.26
2022-08-02T14:46:15.371Z,80.45
2022-08-02T14:48:41.726Z,81.80
2022-08-02T14:51:08.103Z,83.38
2022-08-02T14:53:37.951Z,83.59
2022-08-02T14:56:16.122Z,82.31
2022-08-02T14:58:43.820Z,79.92
2022-08-02T15:01:10.210Z,82.17
2022-08-02T15:03:43.190Z,82.74
2022-08-02T15:06:10.233Z,84.58
2022-08-02T15:08:36.610Z,83.46
2022-08-02T15:11:02.944Z,84.48
2022-08-02T15:13:29.299Z,84.79
2022-08-02T15:15:56.984Z,86.82
2022-08-02T15:18:23.334Z,87.32
2022-08-02T15:20:57.246Z,86.89
2022-08-02T15:23:24.490Z,84.85
2022-08-02T15:26:01.327Z,87.25
2022-08-02T15:28:27.667Z,86.39
2022-08-02T15:30:54.008Z,85.70
2022-08-02T15:33:21.737Z,86.17
2022-08-02T15:35:48.086Z,86.57
2022-08-02T15:38:14.407Z,88.36
2022-08-02T15:40:40.758Z,87.26
2022-08-02T15:43:07.254Z,88.51
2022-08-02T15:45:34.353Z,86.09
2022-08-02T15:48:00.941Z,88.20
2022-08-02T15:50:31.286Z,85.85
2022-08-02T15:52:57.643Z,85.99
2022-08-02T15:55:23.998Z,87.81
2022-08-02T15:57:50.340Z,88.32
2022-08-02T16:00:18.657Z,89.06
2022-08-02T16:02:45.361Z,89.70
2022-08-02T16:05:14.413Z,89.38
2022-08-02T16:07:42.168Z,90.16
2022-08-02T16:10:08.900Z,88.77
2022-08-02T16:12:35.241Z,89.85
2022-08-02T16:15:01.588Z,87.06
2022-08-02T16:17:53.945Z,87.65
2022-08-02T16:20:14.405Z,87.85
2022-08-02T16:22:42.081Z,86.63
2022-08-02T16:25:08.580Z,88.67
2022-08-02T16:28:05.908Z,88.30
2022-08-02T16:30:22.508Z,89.35
2022-08-02T16:32:48.838Z,89.03
2022-08-02T16:35:15.278Z,88.44
2022-08-02T16:37:52.160Z,88.15
2022-08-02T16:40:19.214Z,87.28
2022-08-02T16:42:50.784Z,86.16
2022-08-02T16:48:05.466Z,91.10
2022-08-02T16:50:32.271Z,90.26
2022-08-02T16:52:59.999Z,91.09
2022-08-02T16:55:33.541Z,90.79
2022-08-02T16:57:59.855Z,91.20
2022-08-02T17:00:26.232Z,91.61
2022-08-02T17:02:52.798Z,91.92
2022-08-02T17:05:19.145Z,91.51
2022-08-02T17:08:08.465Z,88.98
2022-08-02T17:10:35.841Z,89.59
2022-08-02T17:13:11.081Z,90.96
2022-08-02T17:16:16.987Z,89.73
2022-08-02T17:18:26.627Z,90.02
2022-08-02T17:20:53.177Z,88.88
2022-08-02T17:23:19.514Z,89.40
2022-08-02T17:25:52.445Z,89.76
2022-08-02T17:28:19.196Z,90.94
2022-08-02T17:30:45.530Z,90.99
2022-08-02T17:33:11.868Z,88.07
2022-08-02T17:35:43.447Z,90.96
2022-08-02T17:38:10.299Z,92.42
2022-08-02T17:40:36.819Z,92.25
2022-08-02T17:43:14.725Z,93.15
2022-08-02T17:45:59.848Z,93.83
2022-08-02T17:48:29.316Z,95.08
2022-08-02T17:51:03.477Z,95.56
2022-08-02T17:56:16.143Z,96.92
2022-08-02T17:58:51.922Z,97.56
2022-08-02T18:01:24.251Z,98.29
2022-08-02T18:03:51.015Z,98.89
2022-08-02T18:06:21.056Z,99.09
2022-08-02T18:08:52.522Z,99.38
2022-08-02T18:11:18.872Z,98.88
2022-08-02T18:14:06.569Z,96.29
2022-08-02T18:16:33.037Z,97.40
2022-08-02T18:19:02.952Z,96.91
2022-08-02T18:21:31.649Z,97.94
2022-08-02T18:23:59.168Z,91.71
2022-08-02T18:26:27.233Z,92.43
2022-08-02T18:28:53.700Z,89.48
2022-08-02T18:31:22.788Z,90.83
2022-08-02T18:33:55.814Z,91.87
2022-08-02T18:36:25.413Z,94.26
2022-08-02T18:38:52.042Z,97.96
2022-08-02T18:41:18.723Z,100.00
2022-08-02T18:43:47.880Z,100.00
2022-08-02T18:46:16.379Z,100.00
2022-08-02T18:48:46.433Z,100.00
2022-08-02T18:51:14.741Z,100.00
2022-08-02T18:53:42.877Z,100.00
2022-08-02T18:56:10.673Z,100.00
2022-08-02T18:58:46.892Z,100.00
2022-08-02T19:01:21.937Z,100.00
2022-08-02T19:04:01.316Z,100.00
2022-08-02T19:06:29.156Z,100.00
2022-08-02T19:09:05.837Z,100.00
2022-08-02T19:11:37.862Z,100.00
2022-08-02T19:14:04.478Z,100.00
2022-08-02T19:16:37.080Z,100.00
2022-08-02T19:19:05.960Z,100.00
2022-08-02T19:22:18.199Z,100.00
2022-08-02T19:24:18.972Z,100.00
2022-08-02T19:26:52.079Z,100.00
2022-08-02T19:29:19.518Z,100.00
2022-08-02T19:32:05.900Z,100.00
2022-08-02T19:34:53.560Z,100.00
2022-08-02T19:37:19.904Z,100.00
2022-08-02T19:39:46.247Z,100.00
2022-08-02T19:42:14.557Z,100.00
2022-08-02T19:44:45.065Z,100.00
2022-08-02T19:47:12.209Z,100.00
2022-08-02T19:49:40.347Z,100.00
2022-08-02T19:52:21.194Z,100.00
2022-08-02T19:54:55.401Z,100.00
2022-08-02T19:57:23.309Z,100.00
2022-08-02T19:59:51.995Z,100.00
2022-08-02T20:02:19.038Z,100.00
2022-08-02T20:04:46.494Z,100.00
2022-08-02T20:07:24.230Z,100.00
2022-08-02T20:10:04.877Z,100.00
2022-08-02T20:12:36.852Z,100.00
2022-08-02T20:15:07.840Z,100.00
2022-08-02T20:17:47.205Z,100.00
2022-08-02T20:20:14.817Z,100.00
2022-08-02T20:22:42.537Z,100.00
2022-08-02T20:25:10.041Z,100.00
2022-08-02T20:27:51.012Z,100.00
2022-08-02T20:30:17.869Z,100.00
2022-08-02T20:32:52.751Z,100.00
2022-08-02T20:35:22.705Z,100.00
2022-08-02T20:37:59.381Z,100.00
2022-08-02T20:40:29.089Z,100.00
2022-08-02T20:42:55.415Z,100.00
2022-08-02T20:45:22.380Z,100.00
2022-08-02T20:47:49.749Z,100.00
2022-08-02T20:50:17.526Z,100.00
2022-08-02T20:52:44.568Z,100.00
2022-08-02T20:55:17.249Z,100.00
2022-08-02T20:58:00.537Z,100.00
2022-08-02T21:00:28.034Z,100.00
2022-08-02T21:02:54.389Z,100.00
2022-08-02T21:05:20.739Z,100.00
2022-08-02T21:08:07.195Z,100.00
2022-08-02T21:10:43.422Z,100.00
2022-08-02T21:13:18.609Z,100.00
2022-08-02T21:15:45.680Z,100.00
2022-08-02T21:18:14.375Z,100.00
2022-08-02T21:20:53.310Z,100.00
2022-08-02T21:23:20.056Z,100.00
2022-08-02T21:25:56.912Z,100.00
2022-08-02T21:28:24.064Z,100.00
2022-08-02T21:31:01.507Z,100.00
2022-08-02T21:33:29.264Z,100.00
2022-08-02T21:36:15.592Z,100.00
2022-08-02T21:38:42.009Z,100.00
2022-08-02T21:41:11.312Z,100.00
2022-08-02T21:43:39.094Z,100.00
2022-08-02T21:46:05.620Z,100.00
2022-08-02T21:48:32.012Z,100.00
2022-08-02T21:50:58.376Z,100.00
2022-08-02T21:53:42.160Z,100.00
2022-08-02T21:56:10.816Z,100.00
2022-08-02T21:58:37.148Z,100.00
2022-08-02T22:01:03.734Z,100.00
2022-08-02T22:03:30.250Z,100.00
2022-08-02T22:05:56.580Z,100.00
2022-08-02T22:08:22.914Z,100.00
2022-08-02T22:10:50.261Z,100.00
2022-08-02T22:13:19.151Z,100.00
2022-08-02T22:15:46.611Z,100.00
2022-08-02T22:18:14.353Z,100.00
2022-08-02T22:20:40.930Z,100.00
2022-08-02T22:23:12.973Z,100.00
2022-08-02T22:25:49.222Z,100.00
2022-08-02T22:31:04.847Z,100.00
2022-08-02T22:33:33.494Z,100.00
2022-08-02T22:36:00.346Z,100.00
2022-08-02T22:38:26.716Z,100.00
2022-08-02T22:40:53.152Z,100.00
2022-08-02T22:43:23.080Z,100.00
2022-08-02T22:45:49.888Z,100.00
2022-08-02T22:48:17.582Z,100.00
2022-08-02T22:50:43.996Z,100.00
2022-08-02T22:53:10.414Z,100.00
2022-08-02T22:55:41.610Z,100.00
2022-08-02T22:58:08.731Z,100.00
2022-08-02T22:58:34.617Z,90.06
2022-08-02T22:58:48.942Z,96.04
2022-08-02T22:59:12.384Z,100.00
2022-08-02T23:00:35.056Z,100.00
2022-08-02T23:03:01.378Z,100.00
2022-08-02T23:05:30.978Z,100.00
2022-08-02T23:07:57.546Z,100.00
2022-08-02T23:10:23.905Z,100.00
2022-08-02T23:12:50.303Z,100.00
2022-08-02T23:15:16.646Z,100.00
2022-08-02T23:17:43.161Z,100.00
2022-08-02T23:20:09.750Z,100.00
2022-08-02T23:22:37.663Z,100.00
2022-08-02T23:25:04.268Z,100.00
2022-08-02T23:27:31.034Z,100.00
2022-08-02T23:29:57.700Z,100.00
2022-08-02T23:32:25.744Z,100.00
2022-08-02T23:34:52.310Z,100.00
2022-08-02T23:37:18.668Z,100.00
2022-08-02T23:39:47.676Z,100.00
2022-08-02T23:42:14.352Z,100.00
2022-08-02T23:44:40.975Z,100.00
2022-08-02T23:47:07.348Z,100.00
2022-08-02T23:49:33.906Z,100.00
2022-08-02T23:52:01.967Z,100.00
2022-08-02T23:54:28.970Z,100.00
2022-08-02T23:56:56.764Z,100.00
2022-08-02T23:59:23.155Z,100.00
